ADDS METAR Data INFO
IDs: Format: Raw Decoded Include TAF

Data at: 2053 UTC 24 Jun 2018

KMNZ 242035Z AUTO 17018G22KT 10SM CLR 38/17 A2983 RMK AO2 T03770167
KMNZ 242015Z AUTO 15020G30KT 10SM CLR 37/17 A2983 RMK AO2 T03710173
KMNZ 241955Z AUTO 17017G22KT 10SM CLR 37/18 A2984 RMK AO2 T03730175
KMNZ 241935Z AUTO 17017G25KT 10SM CLR 37/18 A2985 RMK AO2 T03680179
KMNZ 241915Z AUTO 17016G24KT 10SM CLR 37/19 A2986 RMK AO2 T03670185
KMNZ 241855Z AUTO 15014G24KT 10SM CLR 36/18 A2986 RMK AO2 T03600183
KMNZ 241835Z AUTO 19013G22KT 10SM CLR 36/18 A2987 RMK AO2 T03580181
KMNZ 241815Z AUTO 18018G22KT 10SM CLR 35/19 A2986 RMK AO2 T03520187
KMNZ 241755Z AUTO 18016G22KT 10SM CLR 35/19 A2987 RMK AO2 T03470188 10348 20247
KMNZ 241735Z AUTO 20012G22KT 10SM CLR 34/19 A2988 RMK AO2 T03440191
KMNZ 241715Z AUTO 21012G18KT 10SM SCT044 34/20 A2988 RMK AO2 T03400196
KMNZ 241655Z AUTO 20013G21KT 10SM CLR 33/20 A2988 RMK AO2 T03340197
KMNZ 241635Z AUTO 18014G19KT 10SM SCT039 33/20 A2989 RMK AO2 T03250198
KMNZ 241615Z AUTO 20013G23KT 10SM CLR 32/20 A2988 RMK AO2 T03200199
KMNZ 241555Z AUTO 21016G23KT 10SM CLR 32/20 A2987 RMK AO2 T03160200
KMNZ 241535Z AUTO 21022G26KT 10SM CLR 31/20 A2987 RMK AO2 T03090197
KMNZ 241515Z AUTO 20017G26KT 10SM CLR 31/20 A2987 RMK AO2 T03050198
KMNZ 241455Z AUTO 20020G24KT 10SM CLR 30/20 A2987 RMK AO2 T02970199
KMNZ 241435Z AUTO 20017G22KT 10SM SCT028 29/21 A2987 RMK AO2 T02900205
KMNZ 241415Z AUTO 20017G24KT 10SM SCT026 28/21 A2986 RMK AO2 T02840205
KMNZ 241355Z AUTO 20016G21KT 10SM SCT022 27/21 A2986 RMK AO2 T02740207
KMNZ 241335Z AUTO 20018G23KT 10SM SCT020 27/21 A2985 RMK AO2 T02670207
KMNZ 241315Z AUTO 20013G20KT 10SM SCT020 26/21 A2985 RMK AO2 T02620210
KMNZ 241255Z AUTO 20013G18KT 10SM CLR 26/21 A2984 RMK AO2 T02560210
KMNZ 241235Z AUTO 19012G16KT 10SM SCT022 25/21 A2984 RMK AO2 T02500208
KMNZ 241215Z AUTO 19011KT 10SM SCT022 25/21 A2982 RMK AO2 T02470206
KMNZ 241155Z AUTO 19014G18KT 10SM SCT026 25/21 A2982 RMK AO2 T02470205 10275 20246
KMNZ 241135Z AUTO 19010KT 10SM SCT026 25/21 A2982 RMK AO2 T02470205
KMNZ 241115Z AUTO 18014G18KT 10SM BKN024 25/21 A2982 RMK AO2 T02500206
KMNZ 241055Z AUTO 17011G16KT 10SM OVC022 25/21 A2981 RMK AO2 T02510208
KMNZ 241035Z AUTO 18012KT 10SM OVC020 26/21 A2981 RMK AO2 T02550211
KMNZ 241015Z AUTO 19012G20KT 10SM OVC018 26/21 A2981 RMK AO2 T02590213
KMNZ 240955Z AUTO 18006G14KT 10SM OVC018 26/22 A2981 RMK AO2 T02610220
KMNZ 240935Z AUTO 18008G17KT 10SM OVC018 27/22 A2980 RMK AO2 T02650221
KMNZ 240915Z AUTO 19008KT 170V280 10SM BKN020 27/22 A2980 RMK AO2 T02670220
KMNZ 240855Z AUTO 19006G25KT 10SM CLR 27/22 A2977 RMK AO2 T02660221
KMNZ 240835Z AUTO 16020G28KT 10SM CLR 27/23 A2975 RMK AO2 T02660225
KMNZ 240815Z AUTO 17018G23KT 10SM CLR 27/23 A2978 RMK AO2 T02660227
KMNZ 240755Z AUTO 19016G21KT 10SM CLR 27/22 A2980 RMK AO2 T02670224
KMNZ 240735Z AUTO 20013KT 10SM CLR 27/22 A2982 RMK AO2 T02690220
KMNZ 240715Z AUTO 19017G20KT 10SM CLR 27/22 A2983 RMK AO2 LTG DSNT NE T02710223
KMNZ 240655Z AUTO 16016G22KT 10SM CLR 27/22 A2982 RMK AO2 LTG DSNT NE T02730224
KMNZ 240635Z AUTO 19014G19KT 10SM CLR 27/22 A2986 RMK AO2 LTG DSNT NE AND SW T02720223
KMNZ 240615Z AUTO 17012KT 10SM VCTS SCT039 27/22 A2986 RMK AO2 LTG DSNT NE AND SW T02740222
KMNZ 240555Z AUTO 19012KT 10SM -RA SCT030 SCT035 BKN041 27/23 A2989 RMK AO2 LTG DSNT N AND SW T02710225 10360 20271 403790256
KMNZ 240535Z AUTO 20011G17KT 10SM VCTSRA SCT032 BKN046 OVC110 29/22 A2990 RMK AO2 LTG DSNT W THRU NE T02850217
KMNZ 240515Z AUTO 20011G14KT 10SM BKN090 BKN110 29/22 A2989 RMK AO2 LTG DSNT W T02870215
KMNZ 240455Z AUTO 18010G16KT 10SM CLR 29/21 A2987 RMK AO2 LTG DSNT W T02860213
KMNZ 240435Z AUTO 18010KT 10SM CLR 29/21 A2985 RMK AO2 LTG DSNT NW T02870212
KMNZ 240415Z AUTO 16015G18KT 10SM CLR 29/21 A2982 RMK AO2 LTG DSNT W AND NW T02910212
KMNZ 240355Z AUTO 17013G20KT 10SM CLR 30/21 A2982 RMK AO2 T02950210
KMNZ 240335Z AUTO 16013G20KT 10SM CLR 30/21 A2980 RMK AO2 T02990205
KMNZ 240315Z AUTO 16017G22KT 10SM CLR 30/20 A2978 RMK AO2 T03030202
KMNZ 240255Z AUTO 16014G20KT 10SM CLR 31/20 A2978 RMK AO2 T03070202
KMNZ 240235Z AUTO 16013G19KT 10SM CLR 31/20 A2977 RMK AO2 T03110201
KMNZ 240215Z AUTO 15014G18KT 10SM CLR 32/20 A2976 RMK AO2 T03160198
KMNZ 240155Z AUTO 16014KT 10SM CLR 32/20 A2975 RMK AO2 T03210195
KMNZ 240135Z AUTO 16016G23KT 10SM CLR 33/20 A2974 RMK AO2 T03260195
KMNZ 240115Z AUTO 16015KT 10SM CLR 33/20 A2974 RMK AO2 T03330196
KMNZ 240055Z AUTO 16020KT 10SM CLR 34/20 A2974 RMK AO2 LTG DSNT NW T03410195
KMNZ 240035Z AUTO 16016G20KT 10SM CLR 35/19 A2974 RMK AO2 T03500190
KMNZ 240015Z AUTO 16019G23KT 10SM CLR 35/19 A2974 RMK AO2 T03530185
KMNZ 232355Z AUTO 16016G21KT 10SM CLR 36/18 A2974 RMK AO2 T03600184 10379 20352
KMNZ 232335Z AUTO 17014G24KT 10SM CLR 36/18 A2974 RMK AO2 T03610183
KMNZ 232315Z AUTO 17018G23KT 10SM CLR 37/18 A2974 RMK AO2 T03650182
KMNZ 232255Z AUTO 17016G21KT 10SM CLR 37/18 A2975 RMK AO2 T03660182
KMNZ 232235Z AUTO 17014G27KT 10SM CLR 37/18 A2975 RMK AO2 T03690182
KMNZ 232215Z AUTO 17018G26KT 10SM CLR 37/18 A2975 RMK AO2 T03720181
KMNZ 232155Z AUTO 16015G24KT 10SM CLR 37/18 A2976 RMK AO2 T03740179
KMNZ 232135Z AUTO 18016G21KT 10SM CLR 38/18 A2976 RMK AO2 T03750180
KMNZ 232115Z AUTO 16015G21KT 10SM CLR 38/18 A2977 RMK AO2 T03760181
KMNZ 232055Z AUTO 18015G23KT 10SM CLR 37/18 A2978 RMK AO2 T03740179
KMNZ 232035Z AUTO 17018G23KT 10SM CLR 37/18 A2979 RMK AO2 T03680176
KMNZ 232015Z AUTO 19014G24KT 10SM CLR 37/18 A2979 RMK AO2 T03710176
KMNZ 231955Z AUTO 17017G23KT 10SM CLR 37/18 A2980 RMK AO2 T03690175
KMNZ 231935Z AUTO 19015G20KT 10SM CLR 37/18 A2981 RMK AO2 T03670175
KMNZ 231915Z AUTO 15014G21KT 10SM CLR 36/17 A2981 RMK AO2 T03610172
KMNZ 231855Z AUTO 16018G22KT 10SM CLR 36/17 A2983 RMK AO2 T03600172
KMNZ 231835Z AUTO 18017G22KT 10SM CLR 36/17 A2984 RMK AO2 T03630172
KMNZ 231815Z AUTO 16017G21KT 10SM CLR 36/17 A2984 RMK AO2 T03570171
KMNZ 231755Z AUTO 18013G22KT 10SM CLR 35/17 A2985 RMK AO2 T03520169 10352 20256
KMNZ 231735Z AUTO 17016G21KT 10SM CLR 35/17 A2986 RMK AO2 T03470169
KMNZ 231715Z AUTO 15016G21KT 10SM CLR 35/17 A2986 RMK AO2 T03450171
KMNZ 231655Z AUTO 18013G22KT 10SM CLR 34/17 A2986 RMK AO2 T03380171
KMNZ 231635Z AUTO 18015G21KT 10SM CLR 34/18 A2986 RMK AO2 T03360177
KMNZ 231615Z AUTO 18015G20KT 10SM CLR 33/19 A2987 RMK AO2 T03340187
KMNZ 231555Z AUTO 19016G19KT 10SM CLR 32/20 A2987 RMK AO2 T03220199
KMNZ 231535Z AUTO 18014G21KT 10SM SCT033 32/20 A2987 RMK AO2 T03170197
KMNZ 231515Z AUTO 16012G16KT 10SM SCT030 SCT036 31/21 A2987 RMK AO2 T03140210
KMNZ 231455Z AUTO 18013KT 10SM SCT026 SCT032 31/22 A2987 RMK AO2 T03050217
KMNZ 231435Z AUTO 19011G17KT 10SM SCT022 BKN030 30/22 A2987 RMK AO2 T03010220
KMNZ 231415Z AUTO 19013G16KT 10SM BKN020 BKN026 29/23 A2987 RMK AO2 T02940225
KMNZ 231355Z AUTO 18013KT 10SM SCT016 28/23 A2986 RMK AO2 T02830229
KMNZ 231335Z AUTO 18009KT 10SM SCT014 28/23 A2986 RMK AO2 T02760232
KMNZ 231315Z AUTO 17010KT 10SM SCT021 27/23 A2985 RMK AO2 T02730232
KMNZ 231255Z AUTO 15007KT 10SM CLR 27/24 A2986 RMK AO2 T02680239
KMNZ 231235Z AUTO 15007KT 10SM CLR 26/24 A2986 RMK AO2 T02610240
KMNZ 231215Z AUTO 16005KT 10SM SCT021 26/24 A2985 RMK AO2 T02570241
KMNZ 231155Z AUTO 17009KT 10SM BKN021 26/24 A2984 RMK AO2 T02570240 10285 20256
KMNZ 231135Z AUTO 15008KT 10SM SCT017 26/24 A2985 RMK AO2 T02570237
KMNZ 231115Z AUTO 14006KT 10SM BKN017 26/24 A2984 RMK AO2 T02580236
KMNZ 231055Z AUTO 11004KT 10SM BKN017 26/24 A2985 RMK AO2 T02610235
KMNZ 231035Z AUTO 16007KT 10SM CLR 26/23 A2982 RMK AO2 T02610233
KMNZ 231015Z AUTO 18008KT 10SM BKN021 26/23 A2981 RMK AO2 T02620232
KMNZ 230955Z AUTO 18009KT 10SM BKN019 26/23 A2980 RMK AO2 T02620230
KMNZ 230935Z AUTO 17010KT 10SM CLR 26/22 A2980 RMK AO2 T02600224
KMNZ 230915Z AUTO 18008KT 10SM CLR 26/22 A2980 RMK AO2 T02630219
KMNZ 230855Z AUTO 17009KT 10SM CLR 27/21 A2978 RMK AO2 T02660214